createdAt,value
2019-06-26T00:03:26.528Z,10.75
2019-06-26T00:08:29.962Z,10.82
2019-06-26T00:13:33.385Z,10.65
2019-06-26T00:18:36.816Z,10.78
2019-06-26T00:23:40.245Z,11.60
2019-06-26T00:28:43.666Z,11.78
2019-06-26T00:33:47.101Z,12.73
2019-06-26T00:38:50.560Z,12.60
2019-06-26T00:43:54.029Z,13.03
2019-06-26T00:48:57.473Z,13.10
2019-06-26T00:54:00.881Z,14.53
2019-06-26T00:59:04.381Z,13.40
2019-06-26T01:04:15.496Z,14.20
2019-06-26T01:09:18.928Z,13.90
2019-06-26T01:14:22.348Z,15.20
2019-06-26T01:19:25.781Z,14.17
2019-06-26T01:24:29.569Z,15.70
2019-06-26T01:29:33.008Z,16.30
2019-06-26T01:34:36.419Z,16.45
2019-06-26T01:39:39.840Z,17.77
2019-06-26T01:44:43.265Z,17.40
2019-06-26T01:49:46.672Z,18.47
2019-06-26T01:54:50.100Z,20.93
2019-06-26T01:59:53.508Z,20.53
2019-06-26T02:04:56.939Z,20.30
2019-06-26T02:10:00.348Z,22.87
2019-06-26T02:15:06.184Z,21.73
2019-06-26T02:20:09.741Z,22.03
2019-06-26T02:25:13.236Z,22.77
2019-06-26T02:30:16.815Z,24.23
2019-06-26T02:35:20.242Z,24.95
2019-06-26T02:40:23.793Z,26.17
2019-06-26T02:45:27.223Z,26.10
2019-06-26T02:50:30.631Z,28.17
2019-06-26T02:55:34.194Z,28.40
2019-06-26T03:00:37.613Z,28.35
2019-06-26T03:05:41.035Z,30.55
2019-06-26T03:10:44.458Z,30.63
2019-06-26T03:15:50.450Z,32.73
2019-06-26T03:20:57.778Z,32.93
2019-06-26T03:26:01.187Z,32.10
2019-06-26T03:31:05.161Z,31.87
2019-06-26T03:36:08.806Z,34.47
2019-06-26T03:41:12.231Z,33.75
2019-06-26T03:46:15.887Z,33.38
2019-06-26T03:51:19.303Z,36.43
2019-06-26T03:56:22.745Z,40.07
2019-06-26T04:01:26.222Z,43.23
2019-06-26T04:06:29.651Z,37.65
2019-06-26T04:11:33.063Z,36.90
2019-06-26T04:16:36.483Z,34.85
2019-06-26T04:21:39.908Z,35.43
2019-06-26T04:26:43.321Z,36.23
2019-06-26T04:31:46.740Z,38.43
2019-06-26T04:36:50.169Z,40.07
2019-06-26T04:41:53.588Z,38.70
2019-06-26T04:46:56.999Z,42.33
2019-06-26T04:52:00.427Z,45.80
2019-06-26T04:57:04.317Z,44.90
2019-06-26T05:02:07.744Z,44.05
2019-06-26T05:07:11.147Z,43.67
2019-06-26T05:12:14.632Z,47.07
2019-06-26T05:17:18.061Z,46.87
2019-06-26T05:22:21.539Z,48.00
2019-06-26T05:27:24.966Z,49.45
2019-06-26T05:32:28.388Z,49.23
2019-06-26T05:37:31.803Z,49.30
2019-06-26T05:42:35.225Z,48.77
2019-06-26T05:47:38.955Z,48.78
2019-06-26T05:52:43.155Z,51.58
2019-06-26T05:57:48.551Z,49.45
2019-06-26T06:02:54.025Z,51.45
2019-06-26T06:07:57.509Z,52.17
2019-06-26T06:13:00.952Z,53.33
2019-06-26T06:18:04.363Z,53.25
2019-06-26T06:23:07.801Z,54.25
2019-06-26T06:28:11.218Z,53.30
2019-06-26T06:33:14.631Z,56.10
2019-06-26T06:38:18.048Z,54.60
2019-06-26T06:43:21.708Z,57.95
2019-06-26T06:48:25.177Z,57.58
2019-06-26T06:53:28.679Z,60.40
2019-06-26T06:58:32.112Z,62.20
2019-06-26T07:03:35.595Z,63.15
2019-06-26T07:08:39.028Z,65.85
2019-06-26T07:13:42.453Z,69.97
2019-06-26T07:18:45.952Z,66.92
2019-06-26T07:23:49.362Z,66.85
2019-06-26T07:28:52.823Z,70.92
2019-06-26T07:33:56.284Z,69.35
2019-06-26T07:38:59.744Z,67.70
2019-06-26T07:44:03.210Z,72.62
2019-06-26T07:49:06.663Z,74.30
2019-06-26T07:54:10.078Z,72.08
2019-06-26T07:59:13.514Z,74.33
2019-06-26T08:04:16.932Z,67.45
2019-06-26T08:09:20.428Z,58.60
2019-06-26T08:14:23.856Z,57.67
2019-06-26T08:19:27.289Z,60.23
2019-06-26T08:24:30.707Z,60.67
2019-06-26T08:29:34.324Z,58.80
2019-06-26T08:34:37.743Z,57.35
2019-06-26T08:39:41.188Z,57.90
2019-06-26T08:44:44.629Z,62.23
2019-06-26T08:49:48.067Z,59.00
2019-06-26T08:54:51.506Z,58.83
2019-06-26T08:59:55.080Z,59.58
2019-06-26T09:04:58.511Z,58.73
2019-06-26T09:10:02.078Z,54.75
2019-06-26T09:15:09.527Z,57.13
2019-06-26T09:20:15.659Z,53.70
2019-06-26T09:25:22.213Z,51.93
2019-06-26T09:30:24.604Z,49.50
2019-06-26T09:35:28.068Z,51.65
2019-06-26T09:40:32.236Z,46.27
2019-06-26T09:45:35.957Z,50.73
2019-06-26T09:50:39.371Z,43.87
2019-06-26T09:55:42.803Z,41.20
2019-06-26T10:00:46.216Z,34.67
2019-06-26T10:05:49.640Z,30.57
2019-06-26T10:10:53.237Z,29.25
2019-06-26T10:16:00.324Z,31.47
2019-06-26T10:21:01.916Z,26.00
2019-06-26T10:26:06.518Z,19.67
2019-06-26T10:31:10.296Z,18.17
2019-06-26T10:36:13.872Z,15.50
2019-06-26T10:41:17.304Z,13.65
2019-06-26T10:46:20.735Z,14.70
2019-06-26T10:51:24.151Z,10.27
2019-06-26T10:56:28.812Z,9.80
2019-06-26T11:01:32.376Z,9.30
2019-06-26T11:06:37.163Z,8.43
2019-06-26T11:11:40.867Z,6.97
2019-06-26T11:16:44.280Z,8.35
2019-06-26T11:21:47.692Z,6.60
2019-06-26T11:26:51.118Z,7.05
2019-06-26T11:31:54.804Z,6.87
2019-06-26T11:37:03.631Z,5.97
2019-06-26T11:42:03.436Z,7.35
2019-06-26T11:47:06.855Z,6.83
2019-06-26T11:52:10.545Z,6.25
2019-06-26T11:57:13.944Z,7.60
2019-06-26T12:02:17.461Z,6.75
2019-06-26T12:07:20.975Z,8.05
2019-06-26T12:12:24.389Z,6.17
2019-06-26T12:17:27.807Z,7.75
2019-06-26T12:22:31.237Z,6.42
2019-06-26T12:27:34.743Z,7.65
2019-06-26T12:32:42.163Z,7.37
2019-06-26T12:37:43.321Z,7.20
2019-06-26T12:42:47.026Z,6.90
2019-06-26T12:47:50.434Z,5.90
2019-06-26T12:52:53.851Z,6.45
2019-06-26T12:58:11.897Z,6.77
2019-06-26T13:03:02.455Z,8.15
2019-06-26T13:08:05.935Z,8.08
2019-06-26T13:13:09.349Z,8.60
2019-06-26T13:18:12.785Z,9.30
2019-06-26T13:23:16.707Z,8.35
2019-06-26T13:28:20.144Z,9.37
2019-06-26T13:33:23.561Z,8.80
2019-06-26T13:38:27.385Z,9.23
2019-06-26T13:43:30.855Z,8.03
2019-06-26T13:48:34.275Z,8.00
2019-06-26T13:53:37.688Z,7.35
2019-06-26T13:58:41.100Z,7.37
2019-06-26T14:03:44.595Z,7.83
2019-06-26T14:08:48.016Z,7.00
2019-06-26T14:13:51.439Z,6.67
2019-06-26T14:18:54.843Z,6.83
2019-06-26T14:23:58.252Z,6.53
2019-06-26T14:29:01.666Z,6.47
2019-06-26T14:34:05.336Z,6.67
2019-06-26T14:39:09.552Z,6.87
2019-06-26T14:44:13.124Z,5.60
2019-06-26T14:49:16.629Z,5.47
2019-06-26T14:54:20.064Z,5.80
2019-06-26T14:59:25.017Z,5.40
2019-06-26T15:04:28.479Z,6.00
2019-06-26T15:09:31.890Z,5.78
2019-06-26T15:14:35.355Z,6.10
2019-06-26T15:19:38.897Z,6.25
2019-06-26T15:24:42.337Z,6.40
2019-06-26T15:29:46.375Z,5.25
2019-06-26T15:39:22.416Z,4.80
2019-06-26T15:44:26.134Z,4.13
2019-06-26T15:49:29.532Z,4.37
2019-06-26T15:54:33.015Z,4.10
2019-06-26T15:59:36.423Z,4.00
2019-06-26T16:04:39.888Z,4.13
2019-06-26T16:09:43.312Z,3.70
2019-06-26T16:14:46.799Z,3.80
2019-06-26T16:19:50.272Z,3.72
2019-06-26T16:24:53.987Z,3.90
2019-06-26T16:29:57.515Z,3.22
2019-06-26T16:35:01.019Z,3.22
2019-06-26T16:40:06.389Z,3.10
2019-06-26T16:45:10.158Z,2.83
2019-06-26T16:50:14.165Z,3.00
2019-06-26T16:55:18.371Z,3.10
2019-06-26T17:00:22.672Z,2.85
2019-06-26T17:05:27.079Z,2.83
2019-06-26T17:10:32.366Z,3.20
2019-06-26T17:15:35.809Z,2.90
2019-06-26T17:20:40.112Z,2.60
2019-06-26T17:25:43.540Z,3.02
2019-06-26T17:30:46.954Z,2.80
2019-06-26T17:35:50.674Z,2.98
2019-06-26T17:40:54.148Z,3.00
2019-06-26T17:45:57.556Z,2.60
2019-06-26T17:51:01.287Z,2.77
2019-06-26T17:56:04.995Z,2.40
2019-06-26T18:01:08.400Z,2.35
2019-06-26T18:06:11.811Z,2.60
2019-06-26T18:11:15.225Z,2.50
2019-06-26T18:16:18.713Z,2.50
2019-06-26T18:21:22.138Z,2.40
2019-06-26T18:26:25.545Z,2.77
2019-06-26T18:31:30.632Z,2.50
2019-06-26T18:36:34.100Z,2.17
2019-06-26T18:41:37.608Z,2.27
2019-06-26T18:46:41.035Z,2.15
2019-06-26T18:51:44.459Z,2.02
2019-06-26T18:56:47.867Z,1.83
2019-06-26T19:01:51.282Z,2.05
2019-06-26T19:06:54.717Z,1.92
2019-06-26T19:11:58.127Z,1.80
2019-06-26T19:17:01.771Z,2.00
2019-06-26T19:22:05.298Z,2.33
2019-06-26T19:27:08.869Z,2.23
2019-06-26T19:32:12.637Z,2.90
2019-06-26T19:37:16.105Z,2.45
2019-06-26T19:42:19.531Z,3.75
2019-06-26T19:47:23.079Z,2.30
2019-06-26T19:52:26.505Z,2.50
2019-06-26T19:57:29.916Z,1.80
2019-06-26T20:02:33.343Z,2.12
2019-06-26T20:07:36.755Z,2.30
2019-06-26T20:12:40.167Z,2.75
2019-06-26T20:17:43.844Z,2.60
2019-06-26T20:22:47.287Z,2.80
2019-06-26T20:27:56.665Z,2.80
2019-06-26T20:32:55.960Z,2.83
2019-06-26T20:37:59.372Z,6.17
2019-06-26T20:43:03.129Z,3.75
2019-06-26T20:48:06.540Z,2.80
2019-06-26T20:53:09.952Z,2.80
2019-06-26T20:58:13.375Z,2.87
2019-06-26T21:03:16.787Z,2.60
2019-06-26T21:08:20.208Z,3.40
2019-06-26T21:13:23.800Z,3.03
2019-06-26T21:19:55.287Z,2.90
2019-06-26T21:24:58.693Z,3.45
2019-06-26T21:30:02.189Z,3.33
2019-06-26T21:35:06.502Z,4.00
2019-06-26T21:40:10.534Z,4.12
2019-06-26T21:45:14.815Z,5.08
2019-06-26T21:50:18.231Z,4.92
2019-06-26T21:55:33.887Z,5.47
2019-06-26T22:00:28.602Z,5.80
2019-06-26T22:05:32.087Z,6.30
2019-06-26T22:10:35.665Z,6.90
2019-06-26T22:15:39.084Z,6.40
2019-06-26T22:20:42.630Z,6.22
2019-06-26T22:25:50.905Z,6.03
2019-06-26T22:30:51.212Z,5.58
2019-06-26T22:35:54.618Z,5.60
2019-06-26T22:40:58.228Z,5.45
2019-06-26T22:46:01.655Z,6.10
2019-06-26T22:51:05.164Z,6.30
2019-06-26T22:56:08.600Z,6.42
2019-06-26T23:01:12.080Z,6.05
2019-06-26T23:06:15.500Z,6.40
2019-06-26T23:11:19.021Z,6.30
2019-06-26T23:16:22.469Z,6.45
2019-06-26T23:21:25.904Z,6.60
2019-06-26T23:26:29.338Z,6.70
2019-06-26T23:31:32.757Z,6.28
2019-06-26T23:36:36.188Z,6.47
2019-06-26T23:41:39.608Z,6.10
2019-06-26T23:46:43.030Z,6.30
2019-06-26T23:51:46.457Z,6.15
2019-06-26T23:56:49.957Z,5.83
